createdAt,value
2022-10-17T00:00:34.893Z,2.05
2022-10-17T00:03:01.622Z,2.30
2022-10-17T00:05:27.996Z,2.00
2022-10-17T00:07:55.094Z,1.70
2022-10-17T00:10:21.813Z,2.22
2022-10-17T00:12:48.406Z,2.25
2022-10-17T00:15:17.588Z,1.70
2022-10-17T00:17:44.154Z,2.05
2022-10-17T00:20:11.217Z,2.10
2022-10-17T00:22:37.684Z,2.80
2022-10-17T00:25:04.399Z,2.75
2022-10-17T00:27:31.009Z,2.13
2022-10-17T00:29:57.445Z,2.30
2022-10-17T00:32:24.112Z,2.25
2022-10-17T00:34:50.490Z,2.40
2022-10-17T00:37:17.924Z,2.60
2022-10-17T00:39:44.331Z,2.15
2022-10-17T00:42:13.092Z,2.13
2022-10-17T00:44:39.462Z,2.15
2022-10-17T00:47:11.021Z,2.50
2022-10-17T00:49:38.677Z,2.38
2022-10-17T00:52:15.538Z,2.40
2022-10-17T00:54:48.245Z,3.17
2022-10-17T00:57:16.590Z,2.10
2022-10-17T00:59:49.028Z,2.40
2022-10-17T01:02:18.550Z,2.22
2022-10-17T01:07:14.568Z,2.53
2022-10-17T01:09:42.780Z,2.88
2022-10-17T01:12:21.152Z,1.77
2022-10-17T01:15:02.745Z,2.35
2022-10-17T01:17:45.642Z,2.33
2022-10-17T01:20:36.573Z,2.50
2022-10-17T01:23:24.828Z,2.25
2022-10-17T01:26:13.940Z,3.30
2022-10-17T01:28:55.594Z,2.30
2022-10-17T01:31:25.741Z,2.92
2022-10-17T01:34:04.521Z,2.20
2022-10-17T01:36:48.595Z,3.03
2022-10-17T01:39:29.984Z,2.50
2022-10-17T01:42:00.673Z,2.30
2022-10-17T01:44:35.420Z,3.20
2022-10-17T01:47:10.698Z,3.33
2022-10-17T01:49:40.768Z,3.63
2022-10-17T01:52:14.885Z,3.33
2022-10-17T01:54:53.436Z,2.95
2022-10-17T01:57:29.478Z,2.92
2022-10-17T01:59:57.229Z,2.80
2022-10-17T02:02:25.770Z,2.60
2022-10-17T02:04:52.770Z,2.28
2022-10-17T02:07:19.808Z,2.58
2022-10-17T02:09:46.953Z,2.42
2022-10-17T02:12:40.156Z,2.22
2022-10-17T02:15:28.541Z,2.50
2022-10-17T02:18:15.796Z,2.28
2022-10-17T02:20:52.997Z,2.40
2022-10-17T02:23:22.359Z,2.75
2022-10-17T02:26:02.551Z,2.80
2022-10-17T02:28:52.437Z,2.45
2022-10-17T02:31:26.814Z,2.85
2022-10-17T02:34:02.751Z,2.65
2022-10-17T02:36:35.851Z,2.30
2022-10-17T02:39:04.148Z,2.28
2022-10-17T02:41:31.850Z,2.67
2022-10-17T02:44:01.642Z,2.50
2022-10-17T02:46:30.512Z,2.42
2022-10-17T02:49:03.255Z,2.42
2022-10-17T02:51:42.160Z,3.08
2022-10-17T02:54:18.923Z,2.30
2022-10-17T02:56:57.867Z,2.80
2022-10-17T02:59:26.068Z,2.50
2022-10-17T03:01:52.901Z,2.88
2022-10-17T03:04:19.754Z,2.75
2022-10-17T03:06:48.849Z,2.80
2022-10-17T03:09:15.626Z,2.72
2022-10-17T03:11:42.139Z,2.72
2022-10-17T03:14:08.985Z,2.58
2022-10-17T03:16:36.487Z,2.58
2022-10-17T03:19:04.305Z,3.10
2022-10-17T03:21:31.962Z,2.88
2022-10-17T03:23:58.379Z,2.92
2022-10-17T03:26:24.858Z,3.10
2022-10-17T03:28:53.685Z,3.10
2022-10-17T03:31:22.433Z,3.35
2022-10-17T03:33:49.767Z,3.50
2022-10-17T03:36:18.467Z,3.00
2022-10-17T03:38:46.990Z,3.60
2022-10-17T03:41:14.141Z,3.38
2022-10-17T03:43:40.813Z,3.33
2022-10-17T03:46:08.217Z,2.50
2022-10-17T03:48:35.747Z,2.63
2022-10-17T03:51:06.691Z,2.92
2022-10-17T03:53:37.398Z,2.88
2022-10-17T03:56:17.027Z,2.83
2022-10-17T03:58:45.545Z,2.90
2022-10-17T04:01:15.785Z,2.80
2022-10-17T04:03:44.014Z,2.58
2022-10-17T04:06:12.468Z,3.28
2022-10-17T04:08:42.787Z,3.33
2022-10-17T04:11:19.649Z,3.08
2022-10-17T04:13:51.980Z,5.13
2022-10-17T04:16:18.416Z,2.13
2022-10-17T04:18:55.453Z,2.50
2022-10-17T04:21:28.154Z,2.67
2022-10-17T04:23:56.552Z,3.67
2022-10-17T04:26:42.501Z,4.80
2022-10-17T04:29:09.181Z,5.15
2022-10-17T04:31:35.830Z,4.63
2022-10-17T04:34:14.457Z,4.00
2022-10-17T04:36:41.083Z,5.32
2022-10-17T04:39:08.492Z,4.32
2022-10-17T04:41:35.940Z,4.28
2022-10-17T04:44:02.654Z,4.00
2022-10-17T04:46:35.010Z,4.05
2022-10-17T04:49:01.648Z,4.20
2022-10-17T04:51:28.907Z,4.32
2022-10-17T04:56:39.363Z,4.78
2022-10-17T04:59:05.821Z,5.88
2022-10-17T05:01:33.011Z,5.65
2022-10-17T05:03:59.849Z,5.93
2022-10-17T05:06:31.459Z,3.63
2022-10-17T05:09:27.952Z,3.90
2022-10-17T05:11:54.510Z,4.57
2022-10-17T05:14:21.433Z,5.97
2022-10-17T05:16:48.105Z,5.75
2022-10-17T05:19:14.726Z,4.78
2022-10-17T05:21:45.659Z,2.92
2022-10-17T05:24:14.676Z,2.10
2022-10-17T05:26:41.092Z,2.38
2022-10-17T05:29:07.605Z,2.17
2022-10-17T05:31:38.051Z,2.40
2022-10-17T05:34:08.036Z,2.35
2022-10-17T05:36:37.721Z,2.63
2022-10-17T05:39:05.028Z,2.83
2022-10-17T05:41:33.541Z,3.65
2022-10-17T05:44:03.100Z,4.25
2022-10-17T05:46:41.154Z,4.30
2022-10-17T05:49:15.079Z,5.35
2022-10-17T05:51:52.050Z,4.78
2022-10-17T05:54:18.549Z,5.78
2022-10-17T05:56:45.400Z,6.47
2022-10-17T05:59:12.089Z,7.25
2022-10-17T06:02:01.102Z,8.20
2022-10-17T06:04:27.810Z,8.75
2022-10-17T06:06:56.136Z,6.85
2022-10-17T06:09:23.659Z,7.15
2022-10-17T06:11:52.769Z,6.47
2022-10-17T06:14:19.857Z,6.50
2022-10-17T06:16:48.210Z,6.50
2022-10-17T06:19:15.684Z,7.05
2022-10-17T06:21:42.160Z,7.18
2022-10-17T06:24:12.556Z,6.05
2022-10-17T06:26:41.240Z,6.47
2022-10-17T06:29:09.220Z,7.22
2022-10-17T06:31:41.810Z,5.95
2022-10-17T06:34:08.340Z,6.90
2022-10-17T06:36:34.862Z,7.43
2022-10-17T06:39:01.417Z,7.03
2022-10-17T06:41:33.872Z,7.88
2022-10-17T06:44:10.797Z,7.30
2022-10-17T06:47:00.063Z,8.00
2022-10-17T06:49:27.729Z,6.70
2022-10-17T06:52:03.473Z,6.80
2022-10-17T06:54:39.536Z,6.30
2022-10-17T06:57:30.325Z,6.80
2022-10-17T07:00:20.177Z,6.68
2022-10-17T07:02:50.941Z,6.75
2022-10-17T07:05:19.345Z,6.55
2022-10-17T07:07:47.476Z,6.28
2022-10-17T07:10:16.159Z,6.00
2022-10-17T07:12:45.684Z,6.15
2022-10-17T07:15:12.448Z,5.97
2022-10-17T07:17:38.859Z,6.47
2022-10-17T07:20:06.430Z,6.82
2022-10-17T07:22:35.098Z,6.32
2022-10-17T07:25:01.812Z,6.28
2022-10-17T07:27:36.884Z,5.90
2022-10-17T07:30:04.460Z,6.80
2022-10-17T07:32:39.273Z,5.65
2022-10-17T07:35:09.142Z,6.70
2022-10-17T07:37:35.888Z,6.10
2022-10-17T07:40:02.857Z,5.68
2022-10-17T07:42:29.371Z,6.25
2022-10-17T07:44:55.799Z,6.05
2022-10-17T07:47:23.230Z,6.20
2022-10-17T07:49:50.195Z,6.38
2022-10-17T07:52:17.486Z,5.95
2022-10-17T07:54:44.343Z,5.57
2022-10-17T07:57:10.872Z,5.05
2022-10-17T07:59:38.234Z,4.97
2022-10-17T08:02:04.769Z,5.95
2022-10-17T08:04:31.331Z,5.18
2022-10-17T08:07:11.336Z,4.65
2022-10-17T08:09:44.295Z,3.75
2022-10-17T08:12:10.925Z,3.95
2022-10-17T08:14:39.129Z,3.67
2022-10-17T08:17:05.505Z,3.95
2022-10-17T08:19:32.126Z,3.95
2022-10-17T08:21:59.149Z,3.70
2022-10-17T08:24:25.694Z,3.30
2022-10-17T08:26:53.305Z,3.45
2022-10-17T08:29:19.858Z,3.50
2022-10-17T08:31:47.888Z,3.38
2022-10-17T08:34:15.882Z,3.10
2022-10-17T08:36:42.288Z,2.92
2022-10-17T08:39:08.692Z,3.03
2022-10-17T08:41:51.229Z,3.20
2022-10-17T08:44:36.150Z,5.13
2022-10-17T08:47:09.105Z,9.27
2022-10-17T08:49:55.750Z,5.72
2022-10-17T08:52:47.217Z,4.65
2022-10-17T08:57:44.448Z,3.35
2022-10-17T09:00:18.016Z,3.33
2022-10-17T09:03:21.167Z,3.47
2022-10-17T09:05:54.529Z,4.05
2022-10-17T09:08:35.634Z,3.63
2022-10-17T09:11:26.604Z,3.85
2022-10-17T09:14:00.945Z,3.50
2022-10-17T09:16:47.971Z,4.07
2022-10-17T09:19:24.274Z,3.65
2022-10-17T09:22:04.264Z,3.88
2022-10-17T09:24:51.008Z,4.50
2022-10-17T09:27:24.906Z,4.55
2022-10-17T09:29:58.615Z,4.82
2022-10-17T09:32:25.613Z,4.90
2022-10-17T09:34:53.813Z,5.43
2022-10-17T09:37:24.760Z,4.78
2022-10-17T09:39:51.303Z,4.30
2022-10-17T09:42:21.647Z,4.00
2022-10-17T09:45:16.708Z,3.22
2022-10-17T09:48:11.163Z,3.20
2022-10-17T09:50:37.717Z,3.30
2022-10-17T09:53:21.335Z,3.53
2022-10-17T09:55:51.547Z,3.92
2022-10-17T09:58:20.398Z,4.60
2022-10-17T10:00:48.866Z,3.45
2022-10-17T10:03:21.359Z,4.13
2022-10-17T10:06:06.966Z,3.70
2022-10-17T10:08:53.686Z,3.42
2022-10-17T10:11:25.673Z,3.45
2022-10-17T10:13:52.671Z,3.53
2022-10-17T10:16:19.062Z,4.28
2022-10-17T10:18:48.710Z,3.60
2022-10-17T10:21:22.950Z,3.47
2022-10-17T10:24:12.576Z,3.50
2022-10-17T10:26:49.780Z,3.35
2022-10-17T10:29:32.598Z,2.80
2022-10-17T10:32:08.069Z,3.08
2022-10-17T10:34:36.085Z,2.83
2022-10-17T10:37:04.165Z,3.10
2022-10-17T10:39:53.051Z,3.80
2022-10-17T10:42:24.924Z,3.15
2022-10-17T10:44:53.886Z,2.90
2022-10-17T10:47:25.001Z,2.78
2022-10-17T10:50:07.637Z,3.35
2022-10-17T10:52:43.619Z,3.05
2022-10-17T10:55:23.867Z,3.72
2022-10-17T10:57:55.585Z,3.72
2022-10-17T11:00:26.025Z,4.25
2022-10-17T11:03:02.325Z,4.22
2022-10-17T11:05:38.020Z,3.90
2022-10-17T11:08:33.973Z,3.70
2022-10-17T11:11:18.201Z,3.53
2022-10-17T11:14:31.193Z,3.83
2022-10-17T11:17:28.831Z,3.90
2022-10-17T11:20:22.958Z,4.03
2022-10-17T11:22:57.473Z,4.10
2022-10-17T11:25:36.831Z,4.10
2022-10-17T11:28:11.604Z,4.43
2022-10-17T11:30:52.322Z,3.80
2022-10-17T11:33:27.142Z,3.75
2022-10-17T11:35:58.863Z,4.38
2022-10-17T11:38:32.330Z,5.10
2022-10-17T11:41:00.075Z,4.30
2022-10-17T11:43:35.533Z,5.28
2022-10-17T11:46:10.504Z,5.13
2022-10-17T11:48:48.504Z,5.65
2022-10-17T11:54:13.222Z,3.45
2022-10-17T11:57:18.364Z,3.20
2022-10-17T12:00:12.829Z,3.67
2022-10-17T12:02:57.736Z,3.30
2022-10-17T12:05:42.901Z,3.42
2022-10-17T12:08:17.722Z,3.13
2022-10-17T12:11:05.878Z,3.22
2022-10-17T12:13:32.450Z,3.22
2022-10-17T12:16:19.094Z,4.22
2022-10-17T12:19:00.783Z,3.30
2022-10-17T12:21:31.294Z,3.30
2022-10-17T12:23:58.658Z,3.10
2022-10-17T12:26:27.721Z,3.47
2022-10-17T12:28:54.781Z,3.60
2022-10-17T12:31:32.468Z,3.50
2022-10-17T12:34:04.756Z,3.30
2022-10-17T12:36:31.102Z,3.20
2022-10-17T12:39:03.657Z,2.95
2022-10-17T12:41:38.934Z,3.50
2022-10-17T12:44:14.594Z,3.65
2022-10-17T12:46:41.236Z,2.85
2022-10-17T12:49:38.501Z,3.33
2022-10-17T12:52:32.211Z,3.13
2022-10-17T12:55:13.990Z,3.40
2022-10-17T12:57:47.272Z,3.50
2022-10-17T13:00:34.464Z,2.90
2022-10-17T13:03:15.263Z,2.78
2022-10-17T13:08:17.724Z,3.50
2022-10-17T13:10:49.104Z,2.45
2022-10-17T13:13:23.968Z,2.92
2022-10-17T13:15:52.729Z,4.43
2022-10-17T13:18:29.698Z,3.30
2022-10-17T13:21:06.560Z,2.80
2022-10-17T13:23:36.012Z,3.17
2022-10-17T13:26:12.662Z,2.90
2022-10-17T13:28:45.913Z,2.28
2022-10-17T13:31:33.432Z,1.70
2022-10-17T13:34:03.251Z,1.85
2022-10-17T13:36:32.573Z,1.92
2022-10-17T13:39:04.838Z,1.75
2022-10-17T13:41:36.543Z,2.28
2022-10-17T13:44:12.542Z,1.58
2022-10-17T13:46:39.984Z,2.45
2022-10-17T13:49:39.257Z,1.95
2022-10-17T13:52:14.087Z,1.90
2022-10-17T13:54:42.936Z,2.10
2022-10-17T13:57:26.148Z,2.05
2022-10-17T13:59:59.418Z,2.53
2022-10-17T14:02:28.827Z,1.83
2022-10-17T14:05:18.103Z,1.92
2022-10-17T14:08:13.754Z,1.88
2022-10-17T14:10:43.729Z,1.67
2022-10-17T14:13:34.113Z,1.30
2022-10-17T14:16:03.441Z,1.77
2022-10-17T14:18:36.711Z,2.00
2022-10-17T14:21:40.520Z,1.95
2022-10-17T14:23:52.870Z,2.42
2022-10-17T14:26:22.374Z,2.00
2022-10-17T14:29:05.469Z,1.80
2022-10-17T14:31:36.924Z,2.15
2022-10-17T14:34:04.508Z,1.60
2022-10-17T14:36:44.329Z,2.00
2022-10-17T14:39:20.360Z,2.10
2022-10-17T14:41:47.905Z,1.90
2022-10-17T14:44:22.837Z,1.40
2022-10-17T14:46:54.683Z,1.48
2022-10-17T14:49:27.352Z,1.77
2022-10-17T14:52:23.479Z,2.35
2022-10-17T14:54:50.293Z,1.60
2022-10-17T14:57:28.661Z,1.60
2022-10-17T14:59:57.039Z,1.85
2022-10-17T15:02:25.767Z,1.60
2022-10-17T15:04:52.818Z,2.22
2022-10-17T15:07:21.111Z,1.98
2022-10-17T15:09:51.425Z,1.58
2022-10-17T15:12:23.370Z,1.90
2022-10-17T15:14:50.599Z,1.70
2022-10-17T15:17:23.739Z,1.52
2022-10-17T15:19:50.759Z,2.28
2022-10-17T15:22:18.124Z,2.35
2022-10-17T15:24:47.909Z,1.40
2022-10-17T15:27:22.702Z,1.85
2022-10-17T15:29:50.368Z,1.75
2022-10-17T15:32:17.167Z,1.90
2022-10-17T15:34:43.672Z,1.52
2022-10-17T15:37:25.196Z,1.80
2022-10-17T15:39:54.961Z,1.80
2022-10-17T15:42:31.040Z,1.95
2022-10-17T15:44:58.389Z,1.90
2022-10-17T15:47:31.466Z,2.28
2022-10-17T15:49:58.841Z,2.15
2022-10-17T15:52:25.366Z,7.43
2022-10-17T15:54:52.610Z,6.93
2022-10-17T15:57:31.234Z,2.33
2022-10-17T15:59:59.149Z,2.95
2022-10-17T16:02:26.323Z,1.77
2022-10-17T16:04:52.950Z,2.10
2022-10-17T16:07:20.524Z,1.65
2022-10-17T16:09:47.064Z,2.00
2022-10-17T16:14:53.292Z,2.55
2022-10-17T16:17:19.686Z,1.63
2022-10-17T16:19:46.111Z,1.50
2022-10-17T16:22:20.957Z,1.52
2022-10-17T16:24:47.411Z,1.88
2022-10-17T16:27:13.862Z,2.13
2022-10-17T16:29:40.268Z,1.77
2022-10-17T16:32:06.793Z,2.47
2022-10-17T16:34:33.217Z,1.60
2022-10-17T16:36:59.560Z,1.95
2022-10-17T16:41:58.600Z,1.90
2022-10-17T16:44:25.414Z,2.13
2022-10-17T16:46:51.769Z,2.55
2022-10-17T16:49:18.258Z,2.33
2022-10-17T16:51:44.701Z,2.40
2022-10-17T16:54:11.183Z,3.70
2022-10-17T16:56:37.666Z,3.42
2022-10-17T16:59:04.158Z,4.13
2022-10-17T17:01:30.520Z,4.45
2022-10-17T17:03:57.071Z,5.05
2022-10-17T17:06:26.665Z,3.65
2022-10-17T17:08:53.953Z,4.38
2022-10-17T17:11:24.549Z,4.32
2022-10-17T17:13:51.237Z,5.63
2022-10-17T17:16:23.868Z,5.20
2022-10-17T17:18:55.560Z,4.30
2022-10-17T17:21:22.788Z,4.50
2022-10-17T17:23:49.828Z,5.25
2022-10-17T17:26:19.057Z,4.60
2022-10-17T17:28:46.140Z,5.00
2022-10-17T17:31:15.531Z,4.65
2022-10-17T17:33:42.578Z,5.80
2022-10-17T17:36:12.809Z,5.70
2022-10-17T17:38:41.123Z,6.77
2022-10-17T17:41:07.869Z,7.28
2022-10-17T17:43:35.450Z,6.53
2022-10-17T17:46:02.361Z,7.07
2022-10-17T17:48:28.934Z,6.93
2022-10-17T17:50:55.440Z,9.73
2022-10-17T17:53:21.809Z,8.35
2022-10-17T17:55:48.213Z,8.05
2022-10-17T17:58:14.591Z,8.48
2022-10-17T18:00:41.070Z,8.52
2022-10-17T18:03:07.849Z,7.65
2022-10-17T18:05:34.322Z,9.85
2022-10-17T18:08:00.715Z,9.65
2022-10-17T18:10:28.267Z,10.73
2022-10-17T18:12:54.660Z,10.07
2022-10-17T18:15:21.052Z,9.10
2022-10-17T18:17:47.506Z,7.20
2022-10-17T18:20:13.880Z,7.70
2022-10-17T18:22:40.275Z,7.40
2022-10-17T18:25:07.167Z,8.10
2022-10-17T18:27:33.594Z,7.50
2022-10-17T18:30:00.064Z,7.00
2022-10-17T18:32:29.628Z,7.88
2022-10-17T18:34:56.258Z,7.03
2022-10-17T18:37:22.622Z,7.18
2022-10-17T18:39:51.523Z,6.88
2022-10-17T18:42:18.473Z,6.57
2022-10-17T18:44:44.861Z,6.93
2022-10-17T18:47:11.273Z,7.50
2022-10-17T18:49:37.708Z,7.28
2022-10-17T18:52:04.219Z,6.95
2022-10-17T18:54:33.333Z,6.78
2022-10-17T18:56:59.712Z,6.65
2022-10-17T18:59:26.270Z,6.75
2022-10-17T19:01:52.698Z,6.75
2022-10-17T19:04:19.168Z,7.50
2022-10-17T19:06:45.699Z,5.60
2022-10-17T19:09:13.468Z,5.40
2022-10-17T19:11:40.589Z,5.40
2022-10-17T19:14:12.758Z,4.80
2022-10-17T19:16:43.710Z,5.25
2022-10-17T19:19:21.680Z,5.35
2022-10-17T19:21:48.645Z,6.80
2022-10-17T19:24:25.490Z,7.05
2022-10-17T19:26:54.368Z,5.90
2022-10-17T19:29:22.547Z,6.72
2022-10-17T19:31:49.120Z,9.77
2022-10-17T19:34:16.419Z,8.10
2022-10-17T19:36:43.325Z,5.28
2022-10-17T19:39:18.731Z,4.57
2022-10-17T19:41:47.687Z,4.28
2022-10-17T19:44:14.964Z,5.30
2022-10-17T19:46:44.306Z,5.13
2022-10-17T19:49:11.512Z,5.07
2022-10-17T19:51:37.971Z,4.72
2022-10-17T19:54:04.634Z,4.88
2022-10-17T19:56:32.854Z,4.43
2022-10-17T19:58:59.557Z,5.22
2022-10-17T20:01:28.699Z,6.38
2022-10-17T20:03:55.716Z,6.22
2022-10-17T20:06:22.848Z,5.50
2022-10-17T20:08:49.744Z,5.63
2022-10-17T20:11:22.005Z,5.25
2022-10-17T20:13:48.972Z,5.82
2022-10-17T20:16:21.860Z,5.68
2022-10-17T20:18:54.503Z,5.72
2022-10-17T20:21:35.056Z,6.85
2022-10-17T20:24:03.062Z,6.03
2022-10-17T20:26:39.136Z,5.40
2022-10-17T20:29:18.786Z,5.50
2022-10-17T20:31:46.558Z,5.50
2022-10-17T20:34:15.044Z,5.40
2022-10-17T20:36:41.896Z,6.53
2022-10-17T20:39:10.844Z,6.38
2022-10-17T20:41:37.234Z,6.97
2022-10-17T20:44:03.946Z,7.18
2022-10-17T20:46:44.322Z,6.75
2022-10-17T20:49:17.265Z,7.22
2022-10-17T20:51:44.270Z,6.72
2022-10-17T20:54:11.674Z,8.07
2022-10-17T20:56:38.538Z,8.90
2022-10-17T20:59:08.074Z,8.15
2022-10-17T21:01:35.812Z,10.00
2022-10-17T21:04:21.494Z,9.25
2022-10-17T21:06:51.126Z,7.70
2022-10-17T21:09:17.922Z,8.80
2022-10-17T21:11:44.359Z,8.18
2022-10-17T21:14:11.966Z,7.97
2022-10-17T21:16:39.412Z,7.25
2022-10-17T21:19:06.266Z,7.60
2022-10-17T21:21:35.791Z,6.95
2022-10-17T21:24:05.367Z,7.45
2022-10-17T21:26:33.534Z,6.00
2022-10-17T21:29:05.358Z,6.10
2022-10-17T21:31:34.021Z,5.80
2022-10-17T21:34:09.041Z,5.90
2022-10-17T21:36:35.739Z,6.03
2022-10-17T21:39:02.537Z,6.55
2022-10-17T21:41:29.744Z,6.78
2022-10-17T21:43:58.756Z,6.40
2022-10-17T21:46:26.084Z,6.32
2022-10-17T21:48:52.843Z,6.72
2022-10-17T21:51:21.965Z,7.43
2022-10-17T21:53:49.113Z,6.47
2022-10-17T21:56:18.588Z,6.40
2022-10-17T21:58:45.795Z,6.50
2022-10-17T22:01:18.222Z,6.00
2022-10-17T22:03:47.526Z,6.68
2022-10-17T22:09:04.900Z,7.07
2022-10-17T22:11:34.888Z,6.25
2022-10-17T22:14:07.289Z,6.45
2022-10-17T22:16:34.982Z,7.35
2022-10-17T22:19:06.296Z,6.32
2022-10-17T22:21:34.617Z,6.75
2022-10-17T22:24:04.023Z,5.90
2022-10-17T22:26:31.694Z,6.30
2022-10-17T22:28:58.351Z,5.63
2022-10-17T22:31:25.129Z,6.60
2022-10-17T22:33:51.719Z,6.72
2022-10-17T22:36:18.215Z,5.88
2022-10-17T22:38:44.863Z,6.10
2022-10-17T22:41:11.226Z,6.28
2022-10-17T22:43:37.613Z,6.55
2022-10-17T22:46:06.272Z,6.85
2022-10-17T22:48:33.268Z,5.93
2022-10-17T22:51:00.514Z,6.32
2022-10-17T22:53:27.181Z,5.82
2022-10-17T22:55:56.073Z,5.40
2022-10-17T22:58:23.404Z,6.05
2022-10-17T23:00:51.585Z,5.93
2022-10-17T23:03:19.549Z,5.90
2022-10-17T23:05:46.052Z,6.10
2022-10-17T23:08:13.614Z,6.20
2022-10-17T23:10:40.528Z,5.90
2022-10-17T23:13:07.126Z,5.80
2022-10-17T23:15:34.163Z,5.63
2022-10-17T23:18:01.706Z,6.45
2022-10-17T23:20:29.733Z,6.35
2022-10-17T23:22:56.921Z,5.88
2022-10-17T23:25:23.550Z,5.45
2022-10-17T23:27:49.949Z,5.13
2022-10-17T23:30:16.861Z,4.55
2022-10-17T23:32:43.433Z,5.70
2022-10-17T23:35:10.280Z,5.22
2022-10-17T23:37:37.268Z,5.28
2022-10-17T23:40:04.842Z,5.07
2022-10-17T23:42:31.706Z,6.15
2022-10-17T23:44:58.058Z,5.35
2022-10-17T23:47:24.569Z,4.63
2022-10-17T23:49:51.042Z,5.80
2022-10-17T23:52:17.412Z,4.95
2022-10-17T23:54:44.018Z,5.68
2022-10-17T23:57:10.397Z,5.47
2022-10-17T23:59:36.805Z,5.20
